sensor_id;sensor_type;location;lat;lon;timestamp;pressure;altitude;pressure_sealevel;temperature;humidity
57290;BME280;43523;53.022;-1.178;2024-02-28T00:00:54;101146.93;;;1.14;100.00
57290;BME280;43523;53.022;-1.178;2024-02-28T00:01:56;101151.81;;;1.09;100.00
57290;BME280;43523;53.022;-1.178;2024-02-28T00:02:58;101148.14;;;1.23;100.00
57290;BME280;43523;53.022;-1.178;2024-02-28T00:04:01;101150.31;;;1.46;100.00
57290;BME280;43523;53.022;-1.178;2024-02-28T00:05:05;101145.28;;;1.35;100.00
57290;BME280;43523;53.022;-1.178;2024-02-28T00:06:07;101145.43;;;1.32;100.00
57290;BME280;43523;53.022;-1.178;2024-02-28T00:07:15;101147.74;;;1.44;100.00
57290;BME280;43523;53.022;-1.178;2024-02-28T00:08:17;101145.87;;;1.66;100.00
57290;BME280;43523;53.022;-1.178;2024-02-28T00:09:20;101145.29;;;1.14;100.00
57290;BME280;43523;53.022;-1.178;2024-02-28T00:10:23;101142.71;;;1.68;100.00
57290;BME280;43523;53.022;-1.178;2024-02-28T00:11:26;101139.85;;;1.37;100.00
57290;BME280;43523;53.022;-1.178;2024-02-28T00:12:30;101134.99;;;1.26;100.00
57290;BME280;43523;53.022;-1.178;2024-02-28T00:13:33;101131.01;;;1.13;100.00
57290;BME280;43523;53.022;-1.178;2024-02-28T00:14:36;101129.99;;;1.38;100.00
57290;BME280;43523;53.022;-1.178;2024-02-28T00:15:38;101128.07;;;1.60;100.00
57290;BME280;43523;53.022;-1.178;2024-02-28T00:16:46;101128.27;;;1.53;100.00
57290;BME280;43523;53.022;-1.178;2024-02-28T00:17:55;101125.14;;;1.25;100.00
57290;BME280;43523;53.022;-1.178;2024-02-28T00:18:58;101127.58;;;0.86;100.00
57290;BME280;43523;53.022;-1.178;2024-02-28T00:20:00;101128.55;;;1.20;100.00
57290;BME280;43523;53.022;-1.178;2024-02-28T00:21:08;101128.36;;;1.19;100.00
57290;BME280;43523;53.022;-1.178;2024-02-28T00:22:10;101136.62;;;0.79;100.00
57290;BME280;43523;53.022;-1.178;2024-02-28T00:23:13;101136.51;;;1.26;100.00
57290;BME280;43523;53.022;-1.178;2024-02-28T00:24:16;101144.57;;;0.75;100.00
57290;BME280;43523;53.022;-1.178;2024-02-28T00:25:18;101144.18;;;1.10;100.00
57290;BME280;43523;53.022;-1.178;2024-02-28T00:26:20;101148.91;;;0.69;100.00
57290;BME280;43523;53.022;-1.178;2024-02-28T00:27:23;101146.68;;;1.17;100.00
57290;BME280;43523;53.022;-1.178;2024-02-28T00:28:26;101149.04;;;1.23;100.00
57290;BME280;43523;53.022;-1.178;2024-02-28T00:29:29;101145.75;;;0.89;100.00
57290;BME280;43523;53.022;-1.178;2024-02-28T00:30:32;101139.00;;;1.14;100.00
57290;BME280;43523;53.022;-1.178;2024-02-28T00:31:34;101135.62;;;1.17;100.00
57290;BME280;43523;53.022;-1.178;2024-02-28T00:32:37;101136.09;;;0.62;100.00
57290;BME280;43523;53.022;-1.178;2024-02-28T00:33:39;101136.92;;;0.53;100.00
57290;BME280;43523;53.022;-1.178;2024-02-28T00:34:42;101138.05;;;0.40;100.00
57290;BME280;43523;53.022;-1.178;2024-02-28T00:35:45;101136.43;;;0.56;100.00
57290;BME280;43523;53.022;-1.178;2024-02-28T00:36:48;101136.03;;;0.74;100.00
57290;BME280;43523;53.022;-1.178;2024-02-28T00:37:50;101138.27;;;0.46;100.00
57290;BME280;43523;53.022;-1.178;2024-02-28T00:38:53;101135.99;;;0.62;100.00
57290;BME280;43523;53.022;-1.178;2024-02-28T00:39:55;101131.89;;;0.84;100.00
57290;BME280;43523;53.022;-1.178;2024-02-28T00:41:05;101133.96;;;0.66;100.00
57290;BME280;43523;53.022;-1.178;2024-02-28T00:42:08;101135.35;;;0.46;100.00
57290;BME280;43523;53.022;-1.178;2024-02-28T00:43:10;101137.35;;;0.57;100.00
57290;BME280;43523;53.022;-1.178;2024-02-28T00:44:13;101139.14;;;0.80;100.00
57290;BME280;43523;53.022;-1.178;2024-02-28T00:45:16;101141.31;;;0.77;100.00
57290;BME280;43523;53.022;-1.178;2024-02-28T00:46:18;101139.52;;;0.93;100.00
57290;BME280;43523;53.022;-1.178;2024-02-28T00:47:21;101141.32;;;1.22;100.00
57290;BME280;43523;53.022;-1.178;2024-02-28T00:48:24;101138.47;;;1.35;100.00
57290;BME280;43523;53.022;-1.178;2024-02-28T00:49:27;101136.70;;;1.64;100.00
57290;BME280;43523;53.022;-1.178;2024-02-28T00:50:29;101134.93;;;1.39;100.00
57290;BME280;43523;53.022;-1.178;2024-02-28T00:51:31;101133.24;;;1.24;100.00
57290;BME280;43523;53.022;-1.178;2024-02-28T00:52:34;101131.08;;;1.33;100.00
57290;BME280;43523;53.022;-1.178;2024-02-28T00:53:36;101128.00;;;1.87;100.00
57290;BME280;43523;53.022;-1.178;2024-02-28T00:54:39;101127.61;;;1.86;100.00
57290;BME280;43523;53.022;-1.178;2024-02-28T00:55:41;101131.43;;;1.27;100.00
57290;BME280;43523;53.022;-1.178;2024-02-28T00:56:43;101130.36;;;1.76;100.00
57290;BME280;43523;53.022;-1.178;2024-02-28T00:57:47;101130.57;;;1.48;100.00
57290;BME280;43523;53.022;-1.178;2024-02-28T00:58:50;101127.10;;;1.31;100.00
57290;BME280;43523;53.022;-1.178;2024-02-28T00:59:52;101125.61;;;1.31;100.00
57290;BME280;43523;53.022;-1.178;2024-02-28T01:00:55;101121.90;;;1.81;100.00
57290;BME280;43523;53.022;-1.178;2024-02-28T01:01:58;101121.54;;;1.30;100.00
57290;BME280;43523;53.022;-1.178;2024-02-28T01:03:01;101124.93;;;1.04;100.00
57290;BME280;43523;53.022;-1.178;2024-02-28T01:04:05;101129.42;;;0.92;100.00
57290;BME280;43523;53.022;-1.178;2024-02-28T01:05:09;101131.82;;;1.54;100.00
57290;BME280;43523;53.022;-1.178;2024-02-28T01:06:11;101136.76;;;1.21;100.00
57290;BME280;43523;53.022;-1.178;2024-02-28T01:07:14;101138.78;;;1.00;100.00
57290;BME280;43523;53.022;-1.178;2024-02-28T01:08:16;101137.69;;;1.21;100.00
57290;BME280;43523;53.022;-1.178;2024-02-28T01:09:19;101135.82;;;1.41;100.00
57290;BME280;43523;53.022;-1.178;2024-02-28T01:10:21;101135.88;;;1.16;100.00
57290;BME280;43523;53.022;-1.178;2024-02-28T01:11:24;101134.13;;;1.06;100.00
57290;BME280;43523;53.022;-1.178;2024-02-28T01:12:27;101130.62;;;0.99;100.00
57290;BME280;43523;53.022;-1.178;2024-02-28T01:13:29;101130.76;;;0.67;100.00
57290;BME280;43523;53.022;-1.178;2024-02-28T01:14:32;101129.56;;;0.64;100.00
57290;BME280;43523;53.022;-1.178;2024-02-28T01:15:35;101131.56;;;0.65;100.00
57290;BME280;43523;53.022;-1.178;2024-02-28T01:16:37;101131.46;;;1.29;100.00
57290;BME280;43523;53.022;-1.178;2024-02-28T01:17:39;101134.35;;;0.73;100.00
57290;BME280;43523;53.022;-1.178;2024-02-28T01:18:42;101134.73;;;0.88;100.00
57290;BME280;43523;53.022;-1.178;2024-02-28T01:19:44;101135.75;;;0.84;100.00
57290;BME280;43523;53.022;-1.178;2024-02-28T01:20:46;101141.51;;;1.13;100.00
57290;BME280;43523;53.022;-1.178;2024-02-28T01:21:49;101145.65;;;1.22;100.00
57290;BME280;43523;53.022;-1.178;2024-02-28T01:22:52;101150.32;;;0.88;100.00
57290;BME280;43523;53.022;-1.178;2024-02-28T01:23:55;101157.34;;;1.07;100.00
57290;BME280;43523;53.022;-1.178;2024-02-28T01:24:58;101160.12;;;0.86;100.00
57290;BME280;43523;53.022;-1.178;2024-02-28T01:26:00;101164.43;;;0.80;100.00
57290;BME280;43523;53.022;-1.178;2024-02-28T01:27:03;101161.32;;;0.59;100.00
57290;BME280;43523;53.022;-1.178;2024-02-28T01:28:06;101160.81;;;0.92;100.00
57290;BME280;43523;53.022;-1.178;2024-02-28T01:29:09;101157.89;;;1.06;100.00
57290;BME280;43523;53.022;-1.178;2024-02-28T01:30:12;101161.87;;;0.55;100.00
57290;BME280;43523;53.022;-1.178;2024-02-28T01:31:15;101162.89;;;0.79;100.00
57290;BME280;43523;53.022;-1.178;2024-02-28T01:32:17;101168.33;;;0.76;100.00
57290;BME280;43523;53.022;-1.178;2024-02-28T01:33:20;101169.85;;;0.84;100.00
57290;BME280;43523;53.022;-1.178;2024-02-28T01:34:23;101170.20;;;0.61;100.00
57290;BME280;43523;53.022;-1.178;2024-02-28T01:35:26;101170.17;;;0.97;100.00
57290;BME280;43523;53.022;-1.178;2024-02-28T01:36:29;101167.11;;;0.49;100.00
57290;BME280;43523;53.022;-1.178;2024-02-28T01:37:33;101170.09;;;0.75;100.00
57290;BME280;43523;53.022;-1.178;2024-02-28T01:38:35;101164.61;;;1.07;100.00
57290;BME280;43523;53.022;-1.178;2024-02-28T01:39:38;101168.25;;;1.03;100.00
57290;BME280;43523;53.022;-1.178;2024-02-28T01:40:45;101166.42;;;1.05;100.00
57290;BME280;43523;53.022;-1.178;2024-02-28T01:41:52;101163.48;;;1.09;100.00
57290;BME280;43523;53.022;-1.178;2024-02-28T01:42:54;101160.36;;;1.20;100.00
57290;BME280;43523;53.022;-1.178;2024-02-28T01:43:57;101158.02;;;1.00;100.00
57290;BME280;43523;53.022;-1.178;2024-02-28T01:45:00;101157.78;;;1.09;100.00
57290;BME280;43523;53.022;-1.178;2024-02-28T01:46:06;101161.09;;;1.10;100.00
57290;BME280;43523;53.022;-1.178;2024-02-28T01:47:11;101162.81;;;1.20;100.00
57290;BME280;43523;53.022;-1.178;2024-02-28T01:48:14;101162.82;;;1.10;100.00
57290;BME280;43523;53.022;-1.178;2024-02-28T01:49:17;101161.86;;;0.99;100.00
57290;BME280;43523;53.022;-1.178;2024-02-28T01:50:20;101157.03;;;1.06;100.00
57290;BME280;43523;53.022;-1.178;2024-02-28T01:51:23;101154.03;;;0.97;100.00
57290;BME280;43523;53.022;-1.178;2024-02-28T01:52:26;101152.37;;;0.84;100.00
57290;BME280;43523;53.022;-1.178;2024-02-28T01:53:29;101150.34;;;0.59;100.00
57290;BME280;43523;53.022;-1.178;2024-02-28T01:54:31;101150.77;;;0.79;100.00
57290;BME280;43523;53.022;-1.178;2024-02-28T01:55:35;101148.47;;;0.71;100.00
57290;BME280;43523;53.022;-1.178;2024-02-28T01:56:39;101153.46;;;1.31;100.00
57290;BME280;43523;53.022;-1.178;2024-02-28T01:57:44;101159.74;;;1.37;100.00
57290;BME280;43523;53.022;-1.178;2024-02-28T01:58:47;101163.83;;;1.04;100.00
57290;BME280;43523;53.022;-1.178;2024-02-28T01:59:50;101166.49;;;0.84;100.00
57290;BME280;43523;53.022;-1.178;2024-02-28T02:00:52;101168.28;;;1.00;100.00
57290;BME280;43523;53.022;-1.178;2024-02-28T02:01:56;101170.13;;;0.88;100.00
57290;BME280;43523;53.022;-1.178;2024-02-28T02:02:59;101169.56;;;0.83;100.00
57290;BME280;43523;53.022;-1.178;2024-02-28T02:04:04;101171.25;;;0.79;100.00
57290;BME280;43523;53.022;-1.178;2024-02-28T02:05:09;101173.04;;;0.50;100.00
57290;BME280;43523;53.022;-1.178;2024-02-28T02:06:12;101171.56;;;0.38;100.00
57290;BME280;43523;53.022;-1.178;2024-02-28T02:07:15;101170.55;;;0.41;100.00
57290;BME280;43523;53.022;-1.178;2024-02-28T02:08:17;101170.93;;;0.49;100.00
57290;BME280;43523;53.022;-1.178;2024-02-28T02:09:20;101172.73;;;0.69;100.00
57290;BME280;43523;53.022;-1.178;2024-02-28T02:10:22;101175.82;;;0.38;100.00
57290;BME280;43523;53.022;-1.178;2024-02-28T02:11:25;101177.72;;;0.51;100.00
57290;BME280;43523;53.022;-1.178;2024-02-28T02:12:28;101176.98;;;0.47;100.00
57290;BME280;43523;53.022;-1.178;2024-02-28T02:13:30;101174.75;;;0.28;100.00
57290;BME280;43523;53.022;-1.178;2024-02-28T02:14:33;101168.18;;;0.16;100.00
57290;BME280;43523;53.022;-1.178;2024-02-28T02:15:36;101164.73;;;0.39;100.00
57290;BME280;43523;53.022;-1.178;2024-02-28T02:16:38;101166.23;;;0.35;100.00
57290;BME280;43523;53.022;-1.178;2024-02-28T02:17:41;101172.17;;;0.38;100.00
57290;BME280;43523;53.022;-1.178;2024-02-28T02:18:45;101175.73;;;0.48;100.00
57290;BME280;43523;53.022;-1.178;2024-02-28T02:19:47;101176.93;;;0.23;100.00
57290;BME280;43523;53.022;-1.178;2024-02-28T02:20:52;101174.41;;;0.43;100.00
57290;BME280;43523;53.022;-1.178;2024-02-28T02:21:58;101175.24;;;-0.05;100.00
57290;BME280;43523;53.022;-1.178;2024-02-28T02:23:01;101175.83;;;0.40;100.00
57290;BME280;43523;53.022;-1.178;2024-02-28T02:24:05;101173.94;;;0.11;100.00
57290;BME280;43523;53.022;-1.178;2024-02-28T02:25:09;101176.08;;;0.30;100.00
57290;BME280;43523;53.022;-1.178;2024-02-28T02:26:11;101181.40;;;0.78;100.00
57290;BME280;43523;53.022;-1.178;2024-02-28T02:27:13;101185.68;;;0.60;100.00
57290;BME280;43523;53.022;-1.178;2024-02-28T02:28:16;101186.80;;;0.77;100.00
57290;BME280;43523;53.022;-1.178;2024-02-28T02:29:18;101184.85;;;0.45;100.00
57290;BME280;43523;53.022;-1.178;2024-02-28T02:30:21;101179.78;;;0.89;100.00
57290;BME280;43523;53.022;-1.178;2024-02-28T02:31:23;101179.67;;;0.66;100.00
57290;BME280;43523;53.022;-1.178;2024-02-28T02:32:26;101177.30;;;0.70;100.00
57290;BME280;43523;53.022;-1.178;2024-02-28T02:33:30;101179.73;;;0.92;100.00
57290;BME280;43523;53.022;-1.178;2024-02-28T02:34:32;101181.41;;;0.77;100.00
57290;BME280;43523;53.022;-1.178;2024-02-28T02:35:35;101180.43;;;0.79;100.00
57290;BME280;43523;53.022;-1.178;2024-02-28T02:36:37;101179.10;;;0.57;100.00
57290;BME280;43523;53.022;-1.178;2024-02-28T02:37:43;101175.00;;;0.45;100.00
57290;BME280;43523;53.022;-1.178;2024-02-28T02:38:46;101169.99;;;0.76;100.00
57290;BME280;43523;53.022;-1.178;2024-02-28T02:39:48;101166.63;;;0.48;100.00
57290;BME280;43523;53.022;-1.178;2024-02-28T02:40:51;101163.81;;;0.42;100.00
57290;BME280;43523;53.022;-1.178;2024-02-28T02:41:54;101165.00;;;0.37;100.00
57290;BME280;43523;53.022;-1.178;2024-02-28T02:42:56;101164.25;;;0.59;100.00
57290;BME280;43523;53.022;-1.178;2024-02-28T02:43:58;101163.33;;;0.63;100.00
57290;BME280;43523;53.022;-1.178;2024-02-28T02:45:01;101165.11;;;0.85;100.00
57290;BME280;43523;53.022;-1.178;2024-02-28T02:46:05;101165.75;;;0.88;100.00
57290;BME280;43523;53.022;-1.178;2024-02-28T02:47:08;101167.59;;;0.55;100.00
57290;BME280;43523;53.022;-1.178;2024-02-28T02:48:11;101173.85;;;0.60;100.00
57290;BME280;43523;53.022;-1.178;2024-02-28T02:49:13;101178.27;;;0.63;100.00
57290;BME280;43523;53.022;-1.178;2024-02-28T02:50:15;101184.10;;;0.42;100.00
57290;BME280;43523;53.022;-1.178;2024-02-28T02:51:20;101181.03;;;0.39;100.00
57290;BME280;43523;53.022;-1.178;2024-02-28T02:52:23;101181.95;;;0.33;100.00
57290;BME280;43523;53.022;-1.178;2024-02-28T02:53:26;101180.25;;;0.04;100.00
57290;BME280;43523;53.022;-1.178;2024-02-28T02:54:28;101175.32;;;-0.05;100.00
57290;BME280;43523;53.022;-1.178;2024-02-28T02:55:30;101173.02;;;-0.01;100.00
57290;BME280;43523;53.022;-1.178;2024-02-28T02:56:33;101168.80;;;-0.19;100.00
57290;BME280;43523;53.022;-1.178;2024-02-28T02:57:36;101164.57;;;-0.08;100.00
57290;BME280;43523;53.022;-1.178;2024-02-28T02:58:38;101164.72;;;0.07;100.00
57290;BME280;43523;53.022;-1.178;2024-02-28T02:59:41;101168.27;;;0.48;100.00
57290;BME280;43523;53.022;-1.178;2024-02-28T03:00:43;101164.17;;;0.63;100.00
57290;BME280;43523;53.022;-1.178;2024-02-28T03:01:45;101164.58;;;0.52;100.00
57290;BME280;43523;53.022;-1.178;2024-02-28T03:02:48;101162.80;;;0.62;100.00
57290;BME280;43523;53.022;-1.178;2024-02-28T03:03:51;101162.16;;;0.89;100.00
57290;BME280;43523;53.022;-1.178;2024-02-28T03:04:54;101158.70;;;0.54;100.00
57290;BME280;43523;53.022;-1.178;2024-02-28T03:06:01;101157.30;;;1.26;100.00
57290;BME280;43523;53.022;-1.178;2024-02-28T03:07:05;101158.96;;;0.96;100.00
57290;BME280;43523;53.022;-1.178;2024-02-28T03:08:08;101162.31;;;0.76;100.00
57290;BME280;43523;53.022;-1.178;2024-02-28T03:09:10;101162.00;;;0.68;100.00
57290;BME280;43523;53.022;-1.178;2024-02-28T03:10:12;101161.33;;;0.84;100.00
57290;BME280;43523;53.022;-1.178;2024-02-28T03:11:15;101158.01;;;0.86;100.00
57290;BME280;43523;53.022;-1.178;2024-02-28T03:12:18;101156.68;;;0.25;100.00
57290;BME280;43523;53.022;-1.178;2024-02-28T03:13:20;101153.88;;;0.55;100.00
57290;BME280;43523;53.022;-1.178;2024-02-28T03:14:23;101151.21;;;0.73;100.00
57290;BME280;43523;53.022;-1.178;2024-02-28T03:15:25;101148.49;;;0.92;100.00
57290;BME280;43523;53.022;-1.178;2024-02-28T03:16:28;101142.54;;;0.99;100.00
57290;BME280;43523;53.022;-1.178;2024-02-28T03:17:31;101135.78;;;0.98;100.00
57290;BME280;43523;53.022;-1.178;2024-02-28T03:18:34;101131.69;;;1.12;100.00
57290;BME280;43523;53.022;-1.178;2024-02-28T03:19:36;101133.81;;;1.16;100.00
57290;BME280;43523;53.022;-1.178;2024-02-28T03:20:38;101137.73;;;1.24;100.00
57290;BME280;43523;53.022;-1.178;2024-02-28T03:21:41;101137.03;;;0.88;100.00
57290;BME280;43523;53.022;-1.178;2024-02-28T03:22:44;101135.73;;;1.20;100.00
57290;BME280;43523;53.022;-1.178;2024-02-28T03:23:46;101135.48;;;1.16;100.00
57290;BME280;43523;53.022;-1.178;2024-02-28T03:24:48;101136.88;;;0.63;100.00
57290;BME280;43523;53.022;-1.178;2024-02-28T03:25:51;101143.51;;;0.43;100.00
57290;BME280;43523;53.022;-1.178;2024-02-28T03:26:53;101146.10;;;0.57;100.00
57290;BME280;43523;53.022;-1.178;2024-02-28T03:27:57;101149.31;;;0.94;100.00
57290;BME280;43523;53.022;-1.178;2024-02-28T03:29:00;101148.92;;;1.18;100.00
57290;BME280;43523;53.022;-1.178;2024-02-28T03:30:04;101149.05;;;0.64;100.00
57290;BME280;43523;53.022;-1.178;2024-02-28T03:31:07;101146.32;;;0.20;100.00
57290;BME280;43523;53.022;-1.178;2024-02-28T03:32:10;101147.09;;;0.10;100.00
57290;BME280;43523;53.022;-1.178;2024-02-28T03:33:13;101143.96;;;0.05;100.00
57290;BME280;43523;53.022;-1.178;2024-02-28T03:34:15;101143.59;;;0.48;100.00
57290;BME280;43523;53.022;-1.178;2024-02-28T03:35:18;101142.39;;;0.75;100.00
57290;BME280;43523;53.022;-1.178;2024-02-28T03:36:21;101140.94;;;0.67;100.00
57290;BME280;43523;53.022;-1.178;2024-02-28T03:37:24;101144.28;;;1.00;100.00
57290;BME280;43523;53.022;-1.178;2024-02-28T03:38:26;101144.97;;;0.71;100.00
57290;BME280;43523;53.022;-1.178;2024-02-28T03:39:34;101147.69;;;-0.08;100.00
57290;BME280;43523;53.022;-1.178;2024-02-28T03:40:37;101146.76;;;0.76;100.00
57290;BME280;43523;53.022;-1.178;2024-02-28T03:41:40;101143.81;;;0.70;100.00
57290;BME280;43523;53.022;-1.178;2024-02-28T03:42:43;101137.53;;;1.26;100.00
57290;BME280;43523;53.022;-1.178;2024-02-28T03:43:45;101134.59;;;1.20;100.00
57290;BME280;43523;53.022;-1.178;2024-02-28T03:44:48;101137.01;;;1.11;100.00
57290;BME280;43523;53.022;-1.178;2024-02-28T03:45:50;101139.71;;;0.66;100.00
57290;BME280;43523;53.022;-1.178;2024-02-28T03:46:53;101140.68;;;0.99;100.00
57290;BME280;43523;53.022;-1.178;2024-02-28T03:47:55;101138.95;;;0.76;100.00
57290;BME280;43523;53.022;-1.178;2024-02-28T03:48:59;101135.93;;;0.68;100.00
57290;BME280;43523;53.022;-1.178;2024-02-28T03:50:01;101131.49;;;0.72;100.00
57290;BME280;43523;53.022;-1.178;2024-02-28T03:51:05;101126.63;;;0.44;100.00
57290;BME280;43523;53.022;-1.178;2024-02-28T03:52:08;101124.33;;;0.59;100.00
57290;BME280;43523;53.022;-1.178;2024-02-28T03:53:10;101122.74;;;0.61;100.00
57290;BME280;43523;53.022;-1.178;2024-02-28T03:54:14;101121.75;;;0.94;100.00
57290;BME280;43523;53.022;-1.178;2024-02-28T03:55:17;101121.38;;;1.10;100.00
57290;BME280;43523;53.022;-1.178;2024-02-28T03:56:23;101125.48;;;1.20;100.00
57290;BME280;43523;53.022;-1.178;2024-02-28T03:57:26;101128.63;;;1.30;100.00
57290;BME280;43523;53.022;-1.178;2024-02-28T03:58:28;101129.04;;;1.26;100.00
57290;BME280;43523;53.022;-1.178;2024-02-28T03:59:31;101131.76;;;1.19;100.00
57290;BME280;43523;53.022;-1.178;2024-02-28T04:00:33;101132.78;;;1.19;100.00
57290;BME280;43523;53.022;-1.178;2024-02-28T04:01:36;101134.43;;;0.75;100.00
57290;BME280;43523;53.022;-1.178;2024-02-28T04:02:38;101137.91;;;1.01;100.00
57290;BME280;43523;53.022;-1.178;2024-02-28T04:03:40;101134.16;;;1.05;100.00
57290;BME280;43523;53.022;-1.178;2024-02-28T04:04:45;101137.98;;;0.93;100.00
57290;BME280;43523;53.022;-1.178;2024-02-28T04:05:48;101136.69;;;0.57;100.00
57290;BME280;43523;53.022;-1.178;2024-02-28T04:06:51;101139.45;;;1.16;100.00
57290;BME280;43523;53.022;-1.178;2024-02-28T04:07:53;101140.22;;;1.03;100.00
57290;BME280;43523;53.022;-1.178;2024-02-28T04:08:56;101140.96;;;0.78;100.00
57290;BME280;43523;53.022;-1.178;2024-02-28T04:09:59;101137.61;;;1.16;100.00
57290;BME280;43523;53.022;-1.178;2024-02-28T04:11:01;101131.83;;;0.63;100.00
57290;BME280;43523;53.022;-1.178;2024-02-28T04:12:06;101128.23;;;0.67;100.00
57290;BME280;43523;53.022;-1.178;2024-02-28T04:13:08;101129.52;;;0.54;100.00
57290;BME280;43523;53.022;-1.178;2024-02-28T04:14:10;101135.38;;;0.82;100.00
57290;BME280;43523;53.022;-1.178;2024-02-28T04:15:13;101136.43;;;0.71;100.00
57290;BME280;43523;53.022;-1.178;2024-02-28T04:16:16;101138.10;;;0.64;100.00
57290;BME280;43523;53.022;-1.178;2024-02-28T04:17:18;101137.51;;;0.78;100.00
57290;BME280;43523;53.022;-1.178;2024-02-28T04:18:20;101133.84;;;0.77;100.00
57290;BME280;43523;53.022;-1.178;2024-02-28T04:19:23;101135.24;;;0.53;100.00
57290;BME280;43523;53.022;-1.178;2024-02-28T04:20:26;101142.94;;;0.82;100.00
57290;BME280;43523;53.022;-1.178;2024-02-28T04:21:28;101148.26;;;1.02;100.00
57290;BME280;43523;53.022;-1.178;2024-02-28T04:22:31;101150.14;;;0.90;100.00
57290;BME280;43523;53.022;-1.178;2024-02-28T04:23:33;101150.47;;;0.96;100.00
57290;BME280;43523;53.022;-1.178;2024-02-28T04:24:36;101141.79;;;1.21;100.00
57290;BME280;43523;53.022;-1.178;2024-02-28T04:25:38;101131.34;;;0.67;100.00
57290;BME280;43523;53.022;-1.178;2024-02-28T04:26:41;101125.80;;;1.18;100.00
57290;BME280;43523;53.022;-1.178;2024-02-28T04:27:43;101122.56;;;0.84;100.00
57290;BME280;43523;53.022;-1.178;2024-02-28T04:28:46;101119.72;;;0.70;100.00
57290;BME280;43523;53.022;-1.178;2024-02-28T04:29:48;101115.01;;;0.61;100.00
57290;BME280;43523;53.022;-1.178;2024-02-28T04:30:51;101105.74;;;0.66;100.00
57290;BME280;43523;53.022;-1.178;2024-02-28T04:31:53;101100.96;;;0.79;100.00
57290;BME280;43523;53.022;-1.178;2024-02-28T04:32:55;101101.22;;;0.76;100.00
57290;BME280;43523;53.022;-1.178;2024-02-28T04:34:02;101102.81;;;0.99;100.00
57290;BME280;43523;53.022;-1.178;2024-02-28T04:35:05;101105.07;;;1.08;100.00
57290;BME280;43523;53.022;-1.178;2024-02-28T04:36:07;101103.02;;;1.07;100.00
57290;BME280;43523;53.022;-1.178;2024-02-28T04:37:10;101102.51;;;1.13;100.00
57290;BME280;43523;53.022;-1.178;2024-02-28T04:38:13;101103.56;;;1.07;100.00
57290;BME280;43523;53.022;-1.178;2024-02-28T04:39:15;101097.91;;;1.14;100.00
57290;BME280;43523;53.022;-1.178;2024-02-28T04:40:18;101094.54;;;0.96;100.00
57290;BME280;43523;53.022;-1.178;2024-02-28T04:41:21;101088.83;;;1.13;100.00
57290;BME280;43523;53.022;-1.178;2024-02-28T04:42:23;101086.85;;;0.65;100.00
57290;BME280;43523;53.022;-1.178;2024-02-28T04:43:26;101085.31;;;0.61;100.00
57290;BME280;43523;53.022;-1.178;2024-02-28T04:44:29;101080.75;;;0.61;100.00
57290;BME280;43523;53.022;-1.178;2024-02-28T04:45:35;101082.71;;;0.65;100.00
57290;BME280;43523;53.022;-1.178;2024-02-28T04:46:38;101086.30;;;0.79;100.00
57290;BME280;43523;53.022;-1.178;2024-02-28T04:47:41;101089.11;;;0.79;100.00
57290;BME280;43523;53.022;-1.178;2024-02-28T04:48:43;101089.74;;;0.63;100.00
57290;BME280;43523;53.022;-1.178;2024-02-28T04:49:46;101087.13;;;0.39;100.00
57290;BME280;43523;53.022;-1.178;2024-02-28T04:50:48;101085.94;;;0.62;100.00
57290;BME280;43523;53.022;-1.178;2024-02-28T04:51:50;101083.48;;;0.12;100.00
57290;BME280;43523;53.022;-1.178;2024-02-28T04:52:53;101084.24;;;0.03;100.00
57290;BME280;43523;53.022;-1.178;2024-02-28T04:53:55;101083.65;;;0.49;100.00
57290;BME280;43523;53.022;-1.178;2024-02-28T04:54:58;101084.88;;;0.55;100.00
57290;BME280;43523;53.022;-1.178;2024-02-28T04:56:00;101083.29;;;0.60;100.00
57290;BME280;43523;53.022;-1.178;2024-02-28T04:57:03;101082.04;;;1.23;100.00
57290;BME280;43523;53.022;-1.178;2024-02-28T04:58:06;101084.28;;;0.85;100.00
57290;BME280;43523;53.022;-1.178;2024-02-28T04:59:08;101079.22;;;1.28;100.00
57290;BME280;43523;53.022;-1.178;2024-02-28T05:00:13;101078.53;;;0.99;100.00
57290;BME280;43523;53.022;-1.178;2024-02-28T05:01:15;101084.48;;;0.77;100.00
57290;BME280;43523;53.022;-1.178;2024-02-28T05:02:17;101094.95;;;0.85;100.00
57290;BME280;43523;53.022;-1.178;2024-02-28T05:03:20;101097.91;;;0.60;100.00
57290;BME280;43523;53.022;-1.178;2024-02-28T05:04:22;101096.89;;;0.48;100.00
57290;BME280;43523;53.022;-1.178;2024-02-28T05:05:25;101094.49;;;0.84;100.00
57290;BME280;43523;53.022;-1.178;2024-02-28T05:06:27;101091.80;;;0.43;100.00
57290;BME280;43523;53.022;-1.178;2024-02-28T05:07:30;101088.66;;;0.45;100.00
57290;BME280;43523;53.022;-1.178;2024-02-28T05:08:32;101088.50;;;0.24;100.00
57290;BME280;43523;53.022;-1.178;2024-02-28T05:09:35;101088.45;;;0.26;100.00
57290;BME280;43523;53.022;-1.178;2024-02-28T05:10:37;101087.70;;;0.77;100.00
57290;BME280;43523;53.022;-1.178;2024-02-28T05:11:40;101085.62;;;0.31;100.00
57290;BME280;43523;53.022;-1.178;2024-02-28T05:12:43;101085.15;;;0.22;100.00
57290;BME280;43523;53.022;-1.178;2024-02-28T05:13:46;101084.64;;;0.45;100.00
57290;BME280;43523;53.022;-1.178;2024-02-28T05:14:48;101083.62;;;0.24;100.00
57290;BME280;43523;53.022;-1.178;2024-02-28T05:15:51;101087.19;;;0.31;100.00
57290;BME280;43523;53.022;-1.178;2024-02-28T05:16:53;101088.02;;;0.43;100.00
57290;BME280;43523;53.022;-1.178;2024-02-28T05:17:56;101087.55;;;0.20;100.00
57290;BME280;43523;53.022;-1.178;2024-02-28T05:18:59;101086.06;;;-0.02;100.00
57290;BME280;43523;53.022;-1.178;2024-02-28T05:20:01;101082.20;;;0.04;100.00
57290;BME280;43523;53.022;-1.178;2024-02-28T05:21:05;101085.21;;;-0.58;100.00
57290;BME280;43523;53.022;-1.178;2024-02-28T05:22:07;101086.93;;;-0.28;100.00
57290;BME280;43523;53.022;-1.178;2024-02-28T05:23:10;101085.84;;;0.04;100.00
57290;BME280;43523;53.022;-1.178;2024-02-28T05:24:13;101079.42;;;0.61;100.00
57290;BME280;43523;53.022;-1.178;2024-02-28T05:25:15;101073.59;;;0.58;100.00